createdAt,value
2018-10-05T00:00:31.671Z,100517.00
2018-10-05T00:03:01.758Z,100527.00
2018-10-05T00:05:32.063Z,100529.00
2018-10-05T00:08:02.496Z,100516.00
2018-10-05T00:10:33.536Z,100518.00
2018-10-05T00:13:04.208Z,100530.00
2018-10-05T00:15:34.670Z,100529.00
2018-10-05T00:18:04.857Z,100518.00
2018-10-05T00:20:36.355Z,100519.00
2018-10-05T00:23:08.937Z,100521.00
2018-10-05T00:25:38.996Z,100523.00
2018-10-05T00:28:09.078Z,100522.00
2018-10-05T00:30:39.214Z,100519.00
2018-10-05T00:33:09.605Z,100515.00
2018-10-05T00:35:39.629Z,100504.00
2018-10-05T00:38:09.802Z,100506.00
2018-10-05T00:40:39.763Z,100518.00
2018-10-05T00:43:10.619Z,100516.00
2018-10-05T00:45:40.815Z,100507.00
2018-10-05T00:48:11.326Z,100510.00
2018-10-05T00:50:42.102Z,100503.00
2018-10-05T00:53:12.188Z,100509.00
2018-10-05T00:55:44.122Z,100502.00
2018-10-05T00:58:16.165Z,100511.00
2018-10-05T01:00:48.016Z,100507.00
2018-10-05T01:03:20.963Z,100508.00
2018-10-05T01:05:51.065Z,100501.00
2018-10-05T01:08:21.116Z,100496.00
2018-10-05T01:10:51.252Z,100502.00
2018-10-05T01:13:21.294Z,100509.00
2018-10-05T01:15:51.498Z,100512.00
2018-10-05T01:18:22.643Z,100502.00
2018-10-05T01:20:52.888Z,100501.00
2018-10-05T01:23:23.976Z,100504.00
2018-10-05T01:25:55.612Z,100501.00
2018-10-05T01:28:26.526Z,100497.00
2018-10-05T01:30:56.773Z,100504.00
2018-10-05T01:33:27.034Z,100500.00
2018-10-05T01:35:57.271Z,100494.00
2018-10-05T01:38:28.004Z,100483.00
2018-10-05T01:40:58.330Z,100408.00
2018-10-05T01:43:29.094Z,100480.00
2018-10-05T01:45:59.330Z,100473.00
2018-10-05T01:48:29.496Z,100468.00
2018-10-05T01:51:00.149Z,100470.00
2018-10-05T01:53:30.274Z,100462.00
2018-10-05T01:56:00.651Z,100450.00
2018-10-05T01:58:31.765Z,100449.00
2018-10-05T02:01:01.972Z,100438.00
2018-10-05T02:03:33.429Z,100429.00
2018-10-05T02:06:03.912Z,100428.00
2018-10-05T02:08:34.354Z,100432.00
2018-10-05T02:11:04.832Z,100432.00
2018-10-05T02:13:35.826Z,100431.00
2018-10-05T02:16:06.260Z,100422.00
2018-10-05T02:18:36.907Z,100418.00
2018-10-05T02:21:07.566Z,100411.00
2018-10-05T02:23:37.897Z,100420.00
2018-10-05T02:26:08.423Z,100401.00
2018-10-05T02:28:38.742Z,100401.00
2018-10-05T02:31:09.776Z,100398.00
2018-10-05T02:33:40.248Z,100392.00
2018-10-05T02:36:10.699Z,100394.00
2018-10-05T02:38:41.511Z,100392.00
2018-10-05T02:41:12.399Z,100380.00
2018-10-05T02:43:42.447Z,100382.00
2018-10-05T02:46:13.625Z,100376.00
2018-10-05T02:48:44.717Z,100375.00
2018-10-05T02:51:15.081Z,100379.00
2018-10-05T02:53:45.541Z,100366.00
2018-10-05T02:56:16.292Z,100371.00
2018-10-05T02:58:46.913Z,100372.00
2018-10-05T03:01:33.381Z,100356.00
2018-10-05T03:04:04.395Z,100343.00
2018-10-05T03:06:34.407Z,100345.00
2018-10-05T03:09:06.395Z,100350.00
2018-10-05T03:11:36.883Z,100350.00
2018-10-05T03:14:07.270Z,100341.00
2018-10-05T03:16:39.034Z,100342.00
2018-10-05T03:19:09.438Z,100343.00
2018-10-05T03:21:40.174Z,100335.00
2018-10-05T03:24:10.959Z,100330.00
2018-10-05T03:26:44.173Z,100333.00
2018-10-05T03:29:14.365Z,100324.00
2018-10-05T03:31:44.616Z,100315.00
2018-10-05T03:34:17.719Z,100323.00
2018-10-05T03:36:48.362Z,100316.00
2018-10-05T03:39:18.506Z,100314.00
2018-10-05T03:41:48.587Z,100308.00
2018-10-05T03:44:19.816Z,100309.00
2018-10-05T03:46:50.157Z,100303.00
2018-10-05T03:49:20.261Z,100298.00
2018-10-05T03:51:50.837Z,100300.00
2018-10-05T03:54:21.424Z,100292.00
2018-10-05T03:56:51.432Z,100300.00
2018-10-05T03:59:21.750Z,100297.00
2018-10-05T04:01:51.945Z,100300.00
2018-10-05T04:04:22.478Z,100302.00
2018-10-05T04:06:53.020Z,100302.00
2018-10-05T04:09:23.381Z,100295.00
2018-10-05T04:11:53.285Z,100285.00
2018-10-05T04:14:23.362Z,100290.00
2018-10-05T04:16:53.534Z,100264.00
2018-10-05T04:19:24.731Z,100277.00
2018-10-05T04:21:55.202Z,100267.00
2018-10-05T04:24:25.492Z,100271.00
2018-10-05T04:26:57.213Z,100269.00
2018-10-05T04:29:27.435Z,100267.00
2018-10-05T04:31:57.635Z,100263.00
2018-10-05T04:34:28.200Z,100261.00
2018-10-05T04:36:58.618Z,100273.00
2018-10-05T04:39:28.552Z,100263.00
2018-10-05T04:41:59.712Z,100269.00
2018-10-05T04:44:30.017Z,100273.00
2018-10-05T04:47:01.958Z,100273.00
2018-10-05T04:49:32.771Z,100276.00
2018-10-05T04:52:03.052Z,100279.00
2018-10-05T04:54:33.417Z,100275.00
2018-10-05T04:57:03.809Z,100275.00
2018-10-05T04:59:34.136Z,100266.00
2018-10-05T05:02:04.320Z,100260.00
2018-10-05T05:04:34.601Z,100259.00
2018-10-05T05:07:05.057Z,100258.00
2018-10-05T05:09:36.167Z,100269.00
2018-10-05T05:12:07.073Z,100275.00
2018-10-05T05:14:37.791Z,100272.00
2018-10-05T05:17:08.020Z,100268.00
2018-10-05T05:19:38.587Z,100278.00
2018-10-05T05:22:10.270Z,100292.00
2018-10-05T05:24:40.213Z,100288.00
2018-10-05T05:27:10.710Z,100285.00
2018-10-05T05:29:40.988Z,100286.00
2018-10-05T05:32:11.082Z,100280.00
2018-10-05T05:34:41.559Z,100281.00
2018-10-05T05:37:11.648Z,100282.00
2018-10-05T05:39:42.914Z,100281.00
2018-10-05T05:42:13.733Z,100269.00
2018-10-05T05:44:44.882Z,100267.00
2018-10-05T05:47:15.746Z,100259.00
2018-10-05T05:49:45.813Z,100258.00
2018-10-05T05:52:15.819Z,100254.00
2018-10-05T05:54:46.429Z,100245.00
2018-10-05T05:57:16.851Z,100256.00
2018-10-05T05:59:47.122Z,100254.00
2018-10-05T06:02:17.583Z,100240.00
2018-10-05T06:04:47.620Z,100252.00
2018-10-05T06:07:17.776Z,100240.00
2018-10-05T06:09:47.947Z,100246.00
2018-10-05T06:12:21.234Z,100249.00
2018-10-05T06:14:51.902Z,100249.00
2018-10-05T06:17:22.051Z,100249.00
2018-10-05T06:19:58.781Z,100251.00
2018-10-05T06:22:29.174Z,100253.00
2018-10-05T06:24:59.185Z,100250.00
2018-10-05T06:27:29.695Z,100251.00
2018-10-05T06:29:59.477Z,100229.00
2018-10-05T06:32:30.046Z,100242.00
2018-10-05T06:35:00.567Z,100238.00
2018-10-05T06:37:31.817Z,100235.00
2018-10-05T06:40:03.269Z,100236.00
2018-10-05T06:42:33.749Z,100240.00
2018-10-05T06:45:04.209Z,100243.00
2018-10-05T06:47:34.117Z,100237.00
2018-10-05T06:50:04.898Z,100251.00
2018-10-05T06:52:35.615Z,100254.00
2018-10-05T06:55:06.718Z,100255.00
2018-10-05T06:57:36.990Z,100237.00
2018-10-05T07:00:08.469Z,100238.00
2018-10-05T07:02:38.827Z,100242.00
2018-10-05T07:05:09.241Z,100236.00
2018-10-05T07:07:39.467Z,100237.00
2018-10-05T07:10:09.953Z,100244.00
2018-10-05T07:12:40.070Z,100241.00
2018-10-05T07:15:10.460Z,100238.00
2018-10-05T07:17:40.486Z,100238.00
2018-10-05T07:20:10.476Z,100234.00
2018-10-05T07:22:41.625Z,100236.00
2018-10-05T07:25:13.940Z,100235.00
2018-10-05T07:27:44.591Z,100231.00
2018-10-05T07:30:14.803Z,100230.00
2018-10-05T07:32:44.897Z,100230.00
2018-10-05T07:35:15.163Z,100224.00
2018-10-05T07:37:45.362Z,100232.00
2018-10-05T07:40:15.768Z,100234.00
2018-10-05T07:42:50.106Z,100236.00
2018-10-05T07:45:20.980Z,100228.00
2018-10-05T07:47:52.180Z,100226.00
2018-10-05T07:50:23.677Z,100224.00
2018-10-05T07:52:54.022Z,100219.00
2018-10-05T07:55:24.453Z,100213.00
2018-10-05T07:57:55.021Z,100218.00
2018-10-05T08:00:25.313Z,100209.00
2018-10-05T08:02:56.681Z,100218.00
2018-10-05T08:05:26.810Z,100226.00
2018-10-05T08:07:57.041Z,100237.00
2018-10-05T08:10:28.211Z,100231.00
2018-10-05T08:12:58.699Z,100233.00
2018-10-05T08:15:28.942Z,100234.00
2018-10-05T08:17:59.612Z,100225.00
2018-10-05T08:20:29.586Z,100225.00
2018-10-05T08:22:59.935Z,100223.00
2018-10-05T08:25:30.185Z,100226.00
2018-10-05T08:28:00.376Z,100223.00
2018-10-05T08:30:31.040Z,100231.00
2018-10-05T08:33:01.578Z,100228.00
2018-10-05T08:35:31.636Z,100177.00
2018-10-05T08:38:02.136Z,100224.00
2018-10-05T08:40:32.477Z,100230.00
2018-10-05T08:43:02.611Z,100218.00
2018-10-05T08:45:33.648Z,100214.00
2018-10-05T08:48:03.706Z,100219.00
2018-10-05T08:50:34.250Z,100221.00
2018-10-05T08:53:04.617Z,100212.00
2018-10-05T08:55:34.547Z,100209.00
2018-10-05T08:58:05.167Z,100205.00
2018-10-05T09:00:35.490Z,100198.00
2018-10-05T09:03:06.499Z,100198.00
2018-10-05T09:05:37.068Z,100184.00
2018-10-05T09:08:07.414Z,100187.00
2018-10-05T09:10:37.500Z,100178.00
2018-10-05T09:13:07.687Z,100193.00
2018-10-05T09:15:38.756Z,100187.00
2018-10-05T09:18:09.003Z,100187.00
2018-10-05T09:20:39.001Z,100186.00
2018-10-05T09:23:10.653Z,100189.00
2018-10-05T09:25:41.225Z,100181.00
2018-10-05T09:28:13.022Z,100180.00
2018-10-05T09:30:43.875Z,100170.00
2018-10-05T09:33:13.855Z,100174.00
2018-10-05T09:35:44.138Z,100187.00
2018-10-05T09:38:15.991Z,100171.00
2018-10-05T09:40:47.697Z,100174.00
2018-10-05T09:43:17.683Z,100174.00
2018-10-05T09:45:48.325Z,100183.00
2018-10-05T09:48:18.451Z,100185.00
2018-10-05T09:50:48.909Z,100178.00
2018-10-05T09:53:19.430Z,100176.00
2018-10-05T09:55:49.355Z,100179.00
2018-10-05T09:58:19.578Z,100175.00
2018-10-05T10:00:54.767Z,100172.00
2018-10-05T10:03:30.828Z,100170.00
2018-10-05T10:06:02.352Z,100167.00
2018-10-05T10:08:32.993Z,100161.00
2018-10-05T10:11:03.468Z,100169.00
2018-10-05T10:13:34.507Z,100175.00
2018-10-05T10:16:04.824Z,100172.00
2018-10-05T10:18:35.114Z,100175.00
2018-10-05T10:21:05.295Z,100176.00
2018-10-05T10:23:35.373Z,100161.00
2018-10-05T10:26:05.875Z,100169.00
2018-10-05T10:28:36.784Z,100165.00
2018-10-05T10:31:07.064Z,100161.00
2018-10-05T10:33:37.311Z,100149.00
2018-10-05T10:36:07.502Z,100148.00
2018-10-05T10:38:37.699Z,100155.00
2018-10-05T10:41:08.634Z,100164.00
2018-10-05T10:43:38.963Z,100165.00
2018-10-05T10:46:10.204Z,100154.00
2018-10-05T10:48:40.503Z,100154.00
2018-10-05T10:51:10.575Z,100157.00
2018-10-05T10:53:40.813Z,100155.00
2018-10-05T10:56:11.009Z,100158.00
2018-10-05T10:58:41.986Z,100157.00
2018-10-05T11:01:13.415Z,100149.00
2018-10-05T11:03:44.273Z,100145.00
2018-10-05T11:06:14.338Z,100153.00
2018-10-05T11:08:50.879Z,100153.00
2018-10-05T11:11:21.648Z,100171.00
2018-10-05T11:13:51.933Z,100158.00
2018-10-05T11:16:22.328Z,100159.00
2018-10-05T11:18:52.802Z,100153.00
2018-10-05T11:21:23.173Z,100143.00
2018-10-05T11:23:53.487Z,100147.00
2018-10-05T11:26:23.753Z,100143.00
2018-10-05T11:28:53.823Z,100128.00
2018-10-05T11:31:25.142Z,100127.00
2018-10-05T11:33:55.396Z,100115.00
2018-10-05T11:36:25.474Z,100112.00
2018-10-05T11:38:56.111Z,100113.00
2018-10-05T11:41:26.195Z,100110.00
2018-10-05T11:43:57.685Z,100115.00
2018-10-05T11:46:28.230Z,100112.00
2018-10-05T11:48:58.260Z,100105.00
2018-10-05T11:51:28.642Z,100102.00
2018-10-05T11:53:58.834Z,100101.00
2018-10-05T11:56:28.954Z,100090.00
2018-10-05T11:58:58.826Z,100093.00
2018-10-05T12:01:28.770Z,100081.00
2018-10-05T12:03:59.330Z,100088.00
2018-10-05T12:06:29.351Z,100075.00
2018-10-05T12:08:59.687Z,100070.00
2018-10-05T12:11:30.210Z,100074.00
2018-10-05T12:14:01.233Z,100076.00
2018-10-05T12:16:31.917Z,100084.00
2018-10-05T12:19:02.319Z,100074.00
2018-10-05T12:21:32.708Z,100060.00
2018-10-05T12:24:03.457Z,100060.00
2018-10-05T12:26:33.889Z,100062.00
2018-10-05T12:29:03.987Z,100063.00
2018-10-05T12:31:34.009Z,100062.00
2018-10-05T12:34:04.855Z,100057.00
2018-10-05T12:36:34.909Z,100067.00
2018-10-05T12:39:06.262Z,100059.00
2018-10-05T12:41:36.685Z,100063.00
2018-10-05T12:44:07.388Z,100055.00
2018-10-05T12:46:37.944Z,100045.00
2018-10-05T12:49:08.025Z,100056.00
2018-10-05T12:51:39.082Z,100050.00
2018-10-05T12:54:09.467Z,100053.00
2018-10-05T12:56:39.590Z,100056.00
2018-10-05T12:59:09.824Z,100043.00
2018-10-05T13:01:39.987Z,100042.00
2018-10-05T13:04:10.912Z,100044.00
2018-10-05T13:06:41.121Z,100043.00
2018-10-05T13:09:12.312Z,100042.00
2018-10-05T13:11:43.561Z,100035.00
2018-10-05T13:14:13.644Z,100050.00
2018-10-05T13:16:43.830Z,100038.00
2018-10-05T13:19:14.099Z,100037.00
2018-10-05T13:21:44.136Z,100040.00
2018-10-05T13:24:14.120Z,100045.00
2018-10-05T13:26:45.763Z,100044.00
2018-10-05T13:29:16.317Z,100045.00
2018-10-05T13:31:46.436Z,100029.00
2018-10-05T13:34:16.825Z,100020.00
2018-10-05T13:36:47.588Z,100019.00
2018-10-05T13:39:18.007Z,100024.00
2018-10-05T13:41:48.251Z,100029.00
2018-10-05T13:44:18.654Z,100027.00
2018-10-05T13:46:49.080Z,100021.00
2018-10-05T13:49:19.719Z,100020.00
2018-10-05T13:51:50.033Z,100031.00
2018-10-05T13:54:20.462Z,100018.00
2018-10-05T13:56:51.238Z,100012.00
2018-10-05T13:59:21.854Z,100018.00
2018-10-05T14:01:52.324Z,100007.00
2018-10-05T14:04:22.758Z,100010.00
2018-10-05T14:06:52.976Z,100015.00
2018-10-05T14:09:23.744Z,100019.00
2018-10-05T14:11:54.472Z,100013.00
2018-10-05T14:14:24.684Z,100015.00
2018-10-05T14:16:54.995Z,100001.00
2018-10-05T14:19:25.241Z,99993.00
2018-10-05T14:21:55.441Z,99987.00
2018-10-05T14:24:25.561Z,99990.00
2018-10-05T14:26:55.553Z,99983.00
2018-10-05T14:29:25.702Z,99987.00
2018-10-05T14:31:55.723Z,99984.00
2018-10-05T14:34:26.179Z,99995.00
2018-10-05T14:36:56.774Z,99991.00
2018-10-05T14:39:27.050Z,99984.00
2018-10-05T14:41:57.238Z,99988.00
2018-10-05T14:44:27.483Z,99968.00
2018-10-05T14:46:58.000Z,99973.00
2018-10-05T14:49:28.498Z,99973.00
2018-10-05T14:51:58.925Z,99960.00
2018-10-05T14:54:29.118Z,99955.00
2018-10-05T14:56:59.289Z,99955.00
2018-10-05T14:59:29.370Z,99958.00
2018-10-05T15:01:59.983Z,99957.00
2018-10-05T15:04:32.204Z,99944.00
2018-10-05T15:07:02.421Z,99951.00
2018-10-05T15:09:32.491Z,99953.00
2018-10-05T15:12:02.971Z,99948.00
2018-10-05T15:14:33.361Z,99946.00
2018-10-05T15:17:03.411Z,99956.00
2018-10-05T15:19:33.710Z,99943.00
2018-10-05T15:22:04.052Z,99952.00
2018-10-05T15:24:34.233Z,99946.00
2018-10-05T15:27:04.723Z,99956.00
2018-10-05T15:29:35.213Z,99955.00
2018-10-05T15:32:05.759Z,99953.00
2018-10-05T15:34:35.877Z,99939.00
2018-10-05T15:37:06.232Z,99939.00
2018-10-05T15:39:36.996Z,99949.00
2018-10-05T15:42:07.786Z,99947.00
2018-10-05T15:44:38.014Z,99942.00
2018-10-05T15:47:11.398Z,99942.00
2018-10-05T15:49:44.026Z,99939.00
2018-10-05T15:52:14.102Z,99951.00
2018-10-05T15:54:44.421Z,99937.00
2018-10-05T15:57:15.048Z,99934.00
2018-10-05T15:59:45.704Z,99935.00
2018-10-05T16:02:16.517Z,99929.00
2018-10-05T16:04:47.176Z,99927.00
2018-10-05T16:07:17.583Z,99929.00
2018-10-05T16:09:48.291Z,99924.00
2018-10-05T16:12:18.466Z,99919.00
2018-10-05T16:14:49.773Z,99917.00
2018-10-05T16:17:20.018Z,99911.00
2018-10-05T16:19:50.844Z,99910.00
2018-10-05T16:22:20.887Z,99916.00
2018-10-05T16:24:51.443Z,99912.00
2018-10-05T16:27:21.883Z,99926.00
2018-10-05T16:29:52.452Z,99934.00
2018-10-05T16:32:22.573Z,99926.00
2018-10-05T16:34:52.838Z,99923.00
2018-10-05T16:37:23.290Z,99915.00
2018-10-05T16:39:53.328Z,99908.00
2018-10-05T16:42:23.757Z,99903.00
2018-10-05T16:44:53.778Z,99903.00
2018-10-05T16:47:24.313Z,99905.00
2018-10-05T16:49:54.458Z,99907.00
2018-10-05T16:52:25.383Z,99907.00
2018-10-05T16:54:56.451Z,99909.00
2018-10-05T16:57:27.357Z,99902.00
2018-10-05T16:59:57.898Z,99901.00
2018-10-05T17:02:29.187Z,99900.00
2018-10-05T17:04:59.450Z,99895.00
2018-10-05T17:07:29.977Z,99902.00
2018-10-05T17:10:00.238Z,99907.00
2018-10-05T17:12:30.493Z,99910.00
2018-10-05T17:15:00.647Z,99909.00
2018-10-05T17:17:30.539Z,99908.00
2018-10-05T17:20:00.584Z,99908.00
2018-10-05T17:22:31.133Z,99906.00
2018-10-05T17:25:01.385Z,99905.00
2018-10-05T17:27:31.794Z,99903.00
2018-10-05T17:30:02.297Z,99910.00
2018-10-05T17:32:39.498Z,99912.00
2018-10-05T17:35:09.697Z,99907.00
2018-10-05T17:37:40.611Z,99908.00
2018-10-05T17:40:13.649Z,99905.00
2018-10-05T17:42:44.148Z,99907.00
2018-10-05T17:45:14.152Z,99892.00
2018-10-05T17:47:44.144Z,99884.00
2018-10-05T17:50:14.514Z,99884.00
2018-10-05T17:52:44.549Z,99893.00
2018-10-05T17:55:14.804Z,99894.00
2018-10-05T17:57:44.830Z,99888.00
2018-10-05T18:00:15.042Z,99892.00
2018-10-05T18:02:45.005Z,99896.00
2018-10-05T18:05:15.234Z,99880.00
2018-10-05T18:07:45.183Z,99879.00
2018-10-05T18:10:15.433Z,99870.00
2018-10-05T18:12:48.995Z,99882.00
2018-10-05T18:15:21.949Z,99882.00
2018-10-05T18:17:54.730Z,99876.00
2018-10-05T18:20:27.122Z,99884.00
2018-10-05T18:22:59.836Z,99880.00
2018-10-05T18:25:32.059Z,99887.00
2018-10-05T18:28:05.747Z,99891.00
2018-10-05T18:30:38.371Z,99887.00
2018-10-05T18:33:10.822Z,99878.00
2018-10-05T18:35:43.571Z,99884.00
2018-10-05T18:38:15.645Z,99888.00
2018-10-05T18:40:47.984Z,99901.00
2018-10-05T18:43:18.148Z,99887.00
2018-10-05T18:45:51.246Z,99893.00
2018-10-05T18:48:21.337Z,99882.00
2018-10-05T18:50:51.383Z,99879.00
2018-10-05T18:53:21.442Z,99886.00
2018-10-05T18:55:51.763Z,99886.00
2018-10-05T18:58:22.087Z,99880.00
2018-10-05T19:00:52.248Z,99873.00
2018-10-05T19:03:22.720Z,99869.00
2018-10-05T19:05:53.232Z,99857.00
2018-10-05T19:08:23.474Z,99878.00
2018-10-05T19:10:53.606Z,99880.00
2018-10-05T19:13:25.854Z,99871.00
2018-10-05T19:15:57.837Z,99885.00
2018-10-05T19:18:28.287Z,99888.00
2018-10-05T19:20:58.335Z,99884.00
2018-10-05T19:23:28.744Z,99889.00
2018-10-05T19:25:58.981Z,99897.00
2018-10-05T19:28:29.250Z,99890.00
2018-10-05T19:30:59.675Z,99880.00
2018-10-05T19:33:29.792Z,99884.00
2018-10-05T19:35:59.831Z,99881.00
2018-10-05T19:38:30.381Z,99904.00
2018-10-05T19:41:00.345Z,99908.00
2018-10-05T19:43:30.720Z,99898.00
2018-10-05T19:46:00.719Z,99901.00
2018-10-05T19:48:30.922Z,99909.00
2018-10-05T19:51:01.411Z,99907.00
2018-10-05T19:53:31.482Z,99894.00
2018-10-05T19:56:01.826Z,99886.00
2018-10-05T19:58:31.853Z,99899.00
2018-10-05T20:01:02.468Z,99890.00
2018-10-05T20:03:33.592Z,99891.00
2018-10-05T20:06:03.786Z,99896.00
2018-10-05T20:08:34.066Z,99901.00
2018-10-05T20:11:05.259Z,99918.00
2018-10-05T20:13:35.339Z,99917.00
2018-10-05T20:16:05.348Z,99921.00
2018-10-05T20:18:35.491Z,99911.00
2018-10-05T20:21:05.770Z,99908.00
2018-10-05T20:23:36.273Z,99903.00
2018-10-05T20:26:06.524Z,99901.00
2018-10-05T20:28:37.523Z,99883.00
2018-10-05T20:31:07.453Z,99884.00
2018-10-05T20:33:37.666Z,99885.00
2018-10-05T20:36:07.732Z,99889.00
2018-10-05T20:38:38.033Z,99892.00
2018-10-05T20:41:08.147Z,99888.00
2018-10-05T20:43:38.520Z,99896.00
2018-10-05T20:46:08.594Z,99893.00
2018-10-05T20:48:38.950Z,99897.00
2018-10-05T20:51:09.247Z,99902.00
2018-10-05T20:53:39.617Z,99906.00
2018-10-05T20:56:10.409Z,99892.00
2018-10-05T20:58:40.712Z,99867.00
2018-10-05T21:01:10.939Z,99880.00
2018-10-05T21:03:40.990Z,99891.00
2018-10-05T21:06:11.190Z,99887.00
2018-10-05T21:08:41.374Z,99877.00
2018-10-05T21:11:11.580Z,99863.00
2018-10-05T21:13:41.630Z,99875.00
2018-10-05T21:16:14.501Z,99870.00
2018-10-05T21:18:44.681Z,99856.00
2018-10-05T21:21:14.705Z,99859.00
2018-10-05T21:23:45.007Z,99866.00
2018-10-05T21:26:15.149Z,99863.00
2018-10-05T21:28:45.523Z,99889.00
2018-10-05T21:31:16.155Z,99896.00
2018-10-05T21:33:46.523Z,99905.00
2018-10-05T21:36:16.865Z,99906.00
2018-10-05T21:38:47.352Z,99892.00
2018-10-05T21:41:17.516Z,99882.00
2018-10-05T21:43:47.548Z,99889.00
2018-10-05T21:46:18.275Z,99886.00
2018-10-05T21:48:48.311Z,99880.00
2018-10-05T21:51:18.360Z,99877.00
2018-10-05T21:53:49.068Z,99871.00
2018-10-05T21:56:19.434Z,99879.00
2018-10-05T21:58:49.680Z,99882.00
2018-10-05T22:01:19.781Z,99872.00
2018-10-05T22:03:50.079Z,99885.00
2018-10-05T22:06:20.407Z,99876.00
2018-10-05T22:08:50.842Z,99868.00
2018-10-05T22:11:21.153Z,99880.00
2018-10-05T22:13:51.737Z,99881.00
2018-10-05T22:16:22.283Z,99880.00
2018-10-05T22:18:52.475Z,99887.00
2018-10-05T22:21:22.448Z,99889.00
2018-10-05T22:23:52.636Z,99894.00
2018-10-05T22:26:23.014Z,99877.00
2018-10-05T22:28:53.350Z,99870.00
2018-10-05T22:31:23.392Z,99872.00
2018-10-05T22:33:55.315Z,99866.00
2018-10-05T22:36:25.355Z,99872.00
2018-10-05T22:38:56.240Z,99871.00
2018-10-05T22:41:26.864Z,99862.00
2018-10-05T22:43:57.157Z,99862.00
2018-10-05T22:46:27.871Z,99874.00
2018-10-05T22:48:58.387Z,99871.00
2018-10-05T22:51:28.603Z,99868.00
2018-10-05T22:53:58.848Z,99872.00
2018-10-05T22:56:29.028Z,99875.00
2018-10-05T22:58:59.309Z,99872.00
2018-10-05T23:01:29.560Z,99877.00
2018-10-05T23:03:59.771Z,99871.00
2018-10-05T23:06:29.858Z,99862.00
2018-10-05T23:09:00.085Z,99870.00
2018-10-05T23:11:32.195Z,99869.00
2018-10-05T23:14:02.562Z,99858.00
2018-10-05T23:16:33.071Z,99865.00
2018-10-05T23:19:04.468Z,99868.00
2018-10-05T23:21:35.710Z,99860.00
2018-10-05T23:24:05.974Z,99859.00
2018-10-05T23:26:36.097Z,99847.00
2018-10-05T23:29:06.367Z,99834.00
2018-10-05T23:31:37.916Z,99847.00
2018-10-05T23:34:08.411Z,99846.00
2018-10-05T23:36:38.489Z,99848.00
2018-10-05T23:39:10.964Z,99846.00
2018-10-05T23:41:41.057Z,99849.00
2018-10-05T23:44:11.334Z,99846.00
2018-10-05T23:46:41.376Z,99836.00
2018-10-05T23:49:11.361Z,99840.00
2018-10-05T23:51:41.668Z,99843.00
2018-10-05T23:54:11.870Z,99847.00
2018-10-05T23:56:41.980Z,99842.00
2018-10-05T23:59:11.995Z,99841.00
